sensor_id;sensor_type;location;lat;lon;timestamp;pressure;altitude;pressure_sealevel;temperature;humidity
75549;BME280;64133;56.002;37.208;2022-11-20T00:04:29;99117.79;;;-4.71;91.28
75549;BME280;64133;56.002;37.208;2022-11-20T00:09:34;99123.24;;;-4.66;91.33
75549;BME280;64133;56.002;37.208;2022-11-20T00:14:39;99125.48;;;-4.70;91.33
75549;BME280;64133;56.002;37.208;2022-11-20T00:19:44;99129.68;;;-4.67;91.43
75549;BME280;64133;56.002;37.208;2022-11-20T00:24:49;99129.34;;;-4.71;91.36
75549;BME280;64133;56.002;37.208;2022-11-20T00:29:54;99125.14;;;-4.74;91.62
75549;BME280;64133;56.002;37.208;2022-11-20T00:34:59;99127.28;;;-4.75;91.76
75549;BME280;64133;56.002;37.208;2022-11-20T00:40:05;99129.86;;;-4.75;91.69
75549;BME280;64133;56.002;37.208;2022-11-20T00:45:10;99125.16;;;-4.75;91.64
75549;BME280;64133;56.002;37.208;2022-11-20T00:50:16;99130.73;;;-4.74;91.61
75549;BME280;64133;56.002;37.208;2022-11-20T00:55:21;99122.81;;;-4.85;91.55
75549;BME280;64133;56.002;37.208;2022-11-20T01:00:26;99132.08;;;-4.77;91.65
75549;BME280;64133;56.002;37.208;2022-11-20T01:05:34;99127.84;;;-4.80;91.61
75549;BME280;64133;56.002;37.208;2022-11-20T01:10:39;99123.09;;;-4.77;91.57
75549;BME280;64133;56.002;37.208;2022-11-20T01:15:44;99122.59;;;-4.75;91.59
75549;BME280;64133;56.002;37.208;2022-11-20T01:20:49;99116.59;;;-4.74;91.55
75549;BME280;64133;56.002;37.208;2022-11-20T01:25:54;99108.69;;;-4.85;91.41
75549;BME280;64133;56.002;37.208;2022-11-20T01:30:59;99117.01;;;-4.75;91.21
75549;BME280;64133;56.002;37.208;2022-11-20T01:36:08;99125.59;;;-4.74;91.17
75549;BME280;64133;56.002;37.208;2022-11-20T01:41:13;99122.03;;;-4.70;90.89
75549;BME280;64133;56.002;37.208;2022-11-20T01:46:18;99126.27;;;-4.68;90.86
75549;BME280;64133;56.002;37.208;2022-11-20T01:51:25;99130.19;;;-4.71;90.67
75549;BME280;64133;56.002;37.208;2022-11-20T01:56:29;99128.27;;;-4.61;90.70
75549;BME280;64133;56.002;37.208;2022-11-20T02:06:48;99146.09;;;-4.55;90.43
75549;BME280;64133;56.002;37.208;2022-11-20T02:11:53;99151.39;;;-4.61;90.20
75549;BME280;64133;56.002;37.208;2022-11-20T02:16:58;99160.84;;;-4.63;90.19
75549;BME280;64133;56.002;37.208;2022-11-20T02:27:17;99167.21;;;-4.60;89.93
75549;BME280;64133;56.002;37.208;2022-11-20T02:32:23;99167.21;;;-4.60;89.97
75549;BME280;64133;56.002;37.208;2022-11-20T02:37:30;99166.44;;;-4.64;89.93
75549;BME280;64133;56.002;37.208;2022-11-20T02:42:32;99176.22;;;-4.62;89.78
75549;BME280;64133;56.002;37.208;2022-11-20T02:47:36;99179.55;;;-4.57;89.89
75549;BME280;64133;56.002;37.208;2022-11-20T02:52:41;99167.32;;;-4.65;89.69
75549;BME280;64133;56.002;37.208;2022-11-20T02:57:46;99179.66;;;-4.61;89.71
75549;BME280;64133;56.002;37.208;2022-11-20T03:02:51;99173.13;;;-4.57;89.68
75549;BME280;64133;56.002;37.208;2022-11-20T03:07:56;99185.14;;;-4.57;89.64
75549;BME280;64133;56.002;37.208;2022-11-20T03:13:01;99180.74;;;-4.53;89.75
75549;BME280;64133;56.002;37.208;2022-11-20T03:18:06;99183.31;;;-4.53;89.57
75549;BME280;64133;56.002;37.208;2022-11-20T03:23:11;99184.69;;;-4.57;89.43
75549;BME280;64133;56.002;37.208;2022-11-20T03:28:16;99179.67;;;-4.63;89.39
75549;BME280;64133;56.002;37.208;2022-11-20T03:33:21;99182.08;;;-4.55;89.47
75549;BME280;64133;56.002;37.208;2022-11-20T03:38:26;99185.20;;;-4.60;89.25
75549;BME280;64133;56.002;37.208;2022-11-20T03:43:31;99185.98;;;-4.58;89.16
75549;BME280;64133;56.002;37.208;2022-11-20T03:48:36;99188.72;;;-4.64;88.86
75549;BME280;64133;56.002;37.208;2022-11-20T03:53:41;99195.54;;;-4.63;89.01
75549;BME280;64133;56.002;37.208;2022-11-20T03:58:45;99194.25;;;-4.63;89.01
75549;BME280;64133;56.002;37.208;2022-11-20T04:03:51;99201.45;;;-4.60;89.09
75549;BME280;64133;56.002;37.208;2022-11-20T04:08:56;99204.47;;;-4.60;88.92
75549;BME280;64133;56.002;37.208;2022-11-20T04:14:01;99201.91;;;-4.62;88.78
75549;BME280;64133;56.002;37.208;2022-11-20T04:19:06;99207.94;;;-4.63;88.65
75549;BME280;64133;56.002;37.208;2022-11-20T04:24:10;99212.29;;;-4.65;88.59
75549;BME280;64133;56.002;37.208;2022-11-20T04:29:15;99222.40;;;-4.57;88.74
75549;BME280;64133;56.002;37.208;2022-11-20T04:34:20;99229.06;;;-4.50;88.60
75549;BME280;64133;56.002;37.208;2022-11-20T04:39:25;99245.44;;;-4.54;88.52
75549;BME280;64133;56.002;37.208;2022-11-20T04:44:30;99241.19;;;-4.55;88.55
75549;BME280;64133;56.002;37.208;2022-11-20T04:49:35;99248.28;;;-4.47;88.73
75549;BME280;64133;56.002;37.208;2022-11-20T04:54:40;99251.95;;;-4.57;88.63
75549;BME280;64133;56.002;37.208;2022-11-20T04:59:45;99263.47;;;-4.56;88.43
75549;BME280;64133;56.002;37.208;2022-11-20T05:04:50;99268.11;;;-4.52;88.55
75549;BME280;64133;56.002;37.208;2022-11-20T05:09:55;99263.23;;;-4.64;88.13
75549;BME280;64133;56.002;37.208;2022-11-20T05:15:00;99252.95;;;-4.64;88.13
75549;BME280;64133;56.002;37.208;2022-11-20T05:20:06;99272.47;;;-4.56;88.15
75549;BME280;64133;56.002;37.208;2022-11-20T05:25:11;99277.83;;;-4.66;88.07
75549;BME280;64133;56.002;37.208;2022-11-20T05:30:16;99291.55;;;-4.66;88.03
75549;BME280;64133;56.002;37.208;2022-11-20T05:35:21;99297.39;;;-4.59;87.90
75549;BME280;64133;56.002;37.208;2022-11-20T05:40:26;99301.54;;;-4.53;88.04
75549;BME280;64133;56.002;37.208;2022-11-20T05:45:31;99298.17;;;-4.56;87.90
75549;BME280;64133;56.002;37.208;2022-11-20T05:50:36;99296.25;;;-4.65;87.73
75549;BME280;64133;56.002;37.208;2022-11-20T05:55:41;99302.63;;;-4.64;88.07
75549;BME280;64133;56.002;37.208;2022-11-20T06:00:45;99308.91;;;-4.58;88.20
75549;BME280;64133;56.002;37.208;2022-11-20T06:05:50;99310.53;;;-4.53;88.07
75549;BME280;64133;56.002;37.208;2022-11-20T06:10:55;99306.48;;;-4.64;88.04
75549;BME280;64133;56.002;37.208;2022-11-20T06:16:00;99323.97;;;-4.60;88.29
75549;BME280;64133;56.002;37.208;2022-11-20T06:21:06;99338.99;;;-4.61;88.15
75549;BME280;64133;56.002;37.208;2022-11-20T06:26:11;99347.79;;;-4.52;88.17
75549;BME280;64133;56.002;37.208;2022-11-20T06:31:15;99345.86;;;-4.42;87.92
75549;BME280;64133;56.002;37.208;2022-11-20T06:36:22;99346.17;;;-4.17;88.09
75549;BME280;64133;56.002;37.208;2022-11-20T06:41:26;99346.19;;;-4.19;87.86
75549;BME280;64133;56.002;37.208;2022-11-20T06:46:32;99350.89;;;-3.99;87.64
75549;BME280;64133;56.002;37.208;2022-11-20T06:51:37;99362.65;;;-3.89;87.32
75549;BME280;64133;56.002;37.208;2022-11-20T06:56:42;99367.06;;;-3.94;87.42
75549;BME280;64133;56.002;37.208;2022-11-20T07:01:46;99362.82;;;-3.96;86.67
75549;BME280;64133;56.002;37.208;2022-11-20T07:06:51;99365.04;;;-3.99;86.62
75549;BME280;64133;56.002;37.208;2022-11-20T07:11:57;99346.08;;;-3.95;86.30
75549;BME280;64133;56.002;37.208;2022-11-20T07:17:02;99349.01;;;-3.92;86.87
75549;BME280;64133;56.002;37.208;2022-11-20T07:22:07;99351.80;;;-3.84;86.63
75549;BME280;64133;56.002;37.208;2022-11-20T07:27:12;99368.28;;;-3.55;86.14
75549;BME280;64133;56.002;37.208;2022-11-20T07:32:17;99362.64;;;-3.53;85.41
75549;BME280;64133;56.002;37.208;2022-11-20T07:37:25;99360.34;;;-3.64;85.52
75549;BME280;64133;56.002;37.208;2022-11-20T07:42:29;99378.31;;;-3.80;85.94
75549;BME280;64133;56.002;37.208;2022-11-20T07:47:37;99384.02;;;-3.67;85.83
75549;BME280;64133;56.002;37.208;2022-11-20T07:52:43;99385.86;;;-3.55;85.79
75549;BME280;64133;56.002;37.208;2022-11-20T07:57:55;99382.67;;;-3.64;85.43
75549;BME280;64133;56.002;37.208;2022-11-20T08:03:00;99384.28;;;-3.60;85.67
75549;BME280;64133;56.002;37.208;2022-11-20T08:08:05;99382.39;;;-3.54;85.41
75549;BME280;64133;56.002;37.208;2022-11-20T08:13:10;99378.25;;;-3.59;85.26
75549;BME280;64133;56.002;37.208;2022-11-20T08:18:40;99379.59;;;-3.44;85.07
75549;BME280;64133;56.002;37.208;2022-11-20T08:23:45;99386.56;;;-3.32;84.68
75549;BME280;64133;56.002;37.208;2022-11-20T08:28:52;99386.59;;;-3.49;84.35
75549;BME280;64133;56.002;37.208;2022-11-20T08:33:55;99395.34;;;-3.39;84.74
75549;BME280;64133;56.002;37.208;2022-11-20T08:39:00;99403.63;;;-3.44;84.56
75549;BME280;64133;56.002;37.208;2022-11-20T08:44:06;99405.75;;;-3.25;84.74
75549;BME280;64133;56.002;37.208;2022-11-20T08:49:11;99416.20;;;-3.15;84.66
75549;BME280;64133;56.002;37.208;2022-11-20T08:54:16;99432.02;;;-3.47;84.51
75549;BME280;64133;56.002;37.208;2022-11-20T08:59:21;99427.05;;;-3.37;84.57
75549;BME280;64133;56.002;37.208;2022-11-20T09:04:25;99439.95;;;-3.20;84.41
75549;BME280;64133;56.002;37.208;2022-11-20T09:09:31;99446.09;;;-3.08;84.38
75549;BME280;64133;56.002;37.208;2022-11-20T09:14:35;99454.52;;;-2.85;84.04
75549;BME280;64133;56.002;37.208;2022-11-20T09:19:40;99465.16;;;-2.81;83.70
75549;BME280;64133;56.002;37.208;2022-11-20T09:24:45;99471.48;;;-2.76;83.71
75549;BME280;64133;56.002;37.208;2022-11-20T09:29:50;99483.59;;;-2.80;83.72
75549;BME280;64133;56.002;37.208;2022-11-20T09:34:55;99497.33;;;-2.80;83.82
75549;BME280;64133;56.002;37.208;2022-11-20T09:40:00;99505.31;;;-2.72;83.78
75549;BME280;64133;56.002;37.208;2022-11-20T09:45:17;99513.33;;;-2.67;83.73
75549;BME280;64133;56.002;37.208;2022-11-20T09:50:27;99510.08;;;-2.73;83.55
75549;BME280;64133;56.002;37.208;2022-11-20T09:55:32;99514.59;;;-2.65;84.24
75549;BME280;64133;56.002;37.208;2022-11-20T10:00:36;99511.66;;;-2.51;84.07
75549;BME280;64133;56.002;37.208;2022-11-20T10:05:42;99519.08;;;-2.57;84.14
75549;BME280;64133;56.002;37.208;2022-11-20T10:10:52;99513.45;;;-2.55;83.97
75549;BME280;64133;56.002;37.208;2022-11-20T10:15:58;99518.41;;;-2.64;84.47
75549;BME280;64133;56.002;37.208;2022-11-20T10:21:05;99513.58;;;-2.60;84.67
75549;BME280;64133;56.002;37.208;2022-11-20T10:26:20;99513.92;;;-2.57;84.98
75549;BME280;64133;56.002;37.208;2022-11-20T10:31:27;99525.86;;;-2.37;84.86
75549;BME280;64133;56.002;37.208;2022-11-20T10:36:33;99528.39;;;-2.35;84.87
75549;BME280;64133;56.002;37.208;2022-11-20T10:41:40;99524.52;;;-2.35;85.05
75549;BME280;64133;56.002;37.208;2022-11-20T10:47:04;99536.81;;;-2.45;85.07
75549;BME280;64133;56.002;37.208;2022-11-20T10:52:11;99538.09;;;-2.43;85.16
75549;BME280;64133;56.002;37.208;2022-11-20T10:57:20;99534.49;;;-2.38;85.19
75549;BME280;64133;56.002;37.208;2022-11-20T11:02:24;99535.67;;;-2.18;85.25
75549;BME280;64133;56.002;37.208;2022-11-20T11:07:30;99538.45;;;-2.10;84.61
75549;BME280;64133;56.002;37.208;2022-11-20T11:12:34;99547.80;;;-2.06;84.01
75549;BME280;64133;56.002;37.208;2022-11-20T11:17:45;99555.86;;;-2.02;83.70
75549;BME280;64133;56.002;37.208;2022-11-20T11:22:45;99558.16;;;-1.91;83.41
75549;BME280;64133;56.002;37.208;2022-11-20T11:27:50;99554.75;;;-2.08;82.58
75549;BME280;64133;56.002;37.208;2022-11-20T11:33:05;99569.86;;;-2.10;82.57
75549;BME280;64133;56.002;37.208;2022-11-20T11:38:14;99563.94;;;-2.14;82.60
75549;BME280;64133;56.002;37.208;2022-11-20T11:43:21;99567.48;;;-2.18;82.12
75549;BME280;64133;56.002;37.208;2022-11-20T11:48:44;99564.70;;;-2.27;82.13
75549;BME280;64133;56.002;37.208;2022-11-20T11:53:49;99569.47;;;-2.28;82.04
75549;BME280;64133;56.002;37.208;2022-11-20T11:58:54;99568.28;;;-2.31;82.10
75549;BME280;64133;56.002;37.208;2022-11-20T12:04:02;99570.11;;;-2.36;82.14
75549;BME280;64133;56.002;37.208;2022-11-20T12:09:08;99572.78;;;-2.39;82.01
75549;BME280;64133;56.002;37.208;2022-11-20T12:14:15;99577.24;;;-2.45;81.91
75549;BME280;64133;56.002;37.208;2022-11-20T12:19:19;99567.70;;;-2.42;82.13
75549;BME280;64133;56.002;37.208;2022-11-20T12:24:37;99576.28;;;-2.41;81.88
75549;BME280;64133;56.002;37.208;2022-11-20T12:29:44;99587.73;;;-2.51;81.85
75549;BME280;64133;56.002;37.208;2022-11-20T12:34:52;99584.25;;;-2.50;81.92
75549;BME280;64133;56.002;37.208;2022-11-20T12:39:58;99579.03;;;-2.47;81.80
75549;BME280;64133;56.002;37.208;2022-11-20T12:45:33;99578.09;;;-2.45;81.90
75549;BME280;64133;56.002;37.208;2022-11-20T12:50:42;99579.94;;;-2.50;81.82
75549;BME280;64133;56.002;37.208;2022-11-20T12:55:49;99585.48;;;-2.47;81.96
75549;BME280;64133;56.002;37.208;2022-11-20T13:00:55;99578.72;;;-2.53;81.92
75549;BME280;64133;56.002;37.208;2022-11-20T13:06:04;99588.69;;;-2.56;82.03
75549;BME280;64133;56.002;37.208;2022-11-20T13:11:14;99590.88;;;-2.58;82.10
75549;BME280;64133;56.002;37.208;2022-11-20T13:16:19;99596.87;;;-2.56;82.07
75549;BME280;64133;56.002;37.208;2022-11-20T13:21:35;99604.34;;;-2.63;81.94
75549;BME280;64133;56.002;37.208;2022-11-20T13:26:29;99604.34;;;-2.63;81.93
75549;BME280;64133;56.002;37.208;2022-11-20T13:31:34;99606.58;;;-2.67;81.92
75549;BME280;64133;56.002;37.208;2022-11-20T13:36:47;99609.55;;;-2.65;82.05
75549;BME280;64133;56.002;37.208;2022-11-20T13:41:53;99603.45;;;-2.62;82.08
75549;BME280;64133;56.002;37.208;2022-11-20T13:46:49;99609.21;;;-2.69;81.91
75549;BME280;64133;56.002;37.208;2022-11-20T13:51:56;99613.92;;;-2.68;81.90
75549;BME280;64133;56.002;37.208;2022-11-20T13:57:07;99622.10;;;-2.69;81.95
75549;BME280;64133;56.002;37.208;2022-11-20T14:02:13;99633.72;;;-2.70;81.93
75549;BME280;64133;56.002;37.208;2022-11-20T14:07:18;99633.94;;;-2.80;81.79
75549;BME280;64133;56.002;37.208;2022-11-20T14:12:27;99631.34;;;-2.78;81.75
75549;BME280;64133;56.002;37.208;2022-11-20T14:17:32;99643.30;;;-2.75;81.76
75549;BME280;64133;56.002;37.208;2022-11-20T14:22:36;99648.61;;;-2.82;81.70
75549;BME280;64133;56.002;37.208;2022-11-20T14:27:42;99652.14;;;-2.86;81.60
75549;BME280;64133;56.002;37.208;2022-11-20T14:32:47;99654.22;;;-2.84;81.87
75549;BME280;64133;56.002;37.208;2022-11-20T14:37:52;99656.78;;;-2.82;81.85
75549;BME280;64133;56.002;37.208;2022-11-20T14:48:10;99672.59;;;-2.78;82.02
75549;BME280;64133;56.002;37.208;2022-11-20T14:53:21;99671.91;;;-2.86;81.91
75549;BME280;64133;56.002;37.208;2022-11-20T14:58:23;99678.80;;;-2.87;81.71
75549;BME280;64133;56.002;37.208;2022-11-20T15:03:34;99671.97;;;-2.89;81.67
75549;BME280;64133;56.002;37.208;2022-11-20T15:08:38;99675.89;;;-2.92;81.71
75549;BME280;64133;56.002;37.208;2022-11-20T15:13:43;99666.03;;;-2.93;81.71
75549;BME280;64133;56.002;37.208;2022-11-20T15:18:48;99667.87;;;-2.98;81.61
75549;BME280;64133;56.002;37.208;2022-11-20T15:23:53;99648.88;;;-2.94;81.63
75549;BME280;64133;56.002;37.208;2022-11-20T15:28:58;99669.98;;;-2.96;81.55
75549;BME280;64133;56.002;37.208;2022-11-20T15:34:04;99661.91;;;-3.00;81.56
75549;BME280;64133;56.002;37.208;2022-11-20T15:39:09;99669.20;;;-2.99;81.57
75549;BME280;64133;56.002;37.208;2022-11-20T15:44:15;99668.21;;;-2.94;81.46
75549;BME280;64133;56.002;37.208;2022-11-20T15:49:20;99662.76;;;-2.99;81.50
75549;BME280;64133;56.002;37.208;2022-11-20T15:54:25;99664.55;;;-3.03;81.42
75549;BME280;64133;56.002;37.208;2022-11-20T15:59:30;99670.84;;;-2.97;81.36
75549;BME280;64133;56.002;37.208;2022-11-20T16:04:35;99662.76;;;-2.99;81.30
75549;BME280;64133;56.002;37.208;2022-11-20T16:09:40;99664.15;;;-3.04;81.39
75549;BME280;64133;56.002;37.208;2022-11-20T16:14:45;99674.91;;;-3.05;81.44
75549;BME280;64133;56.002;37.208;2022-11-20T16:20:11;99671.49;;;-3.07;81.43
75549;BME280;64133;56.002;37.208;2022-11-20T16:25:19;99669.66;;;-3.01;81.42
75549;BME280;64133;56.002;37.208;2022-11-20T16:30:24;99668.08;;;-3.07;81.29
75549;BME280;64133;56.002;37.208;2022-11-20T16:35:30;99679.22;;;-3.07;81.31
75549;BME280;64133;56.002;37.208;2022-11-20T16:40:34;99672.73;;;-3.04;81.27
75549;BME280;64133;56.002;37.208;2022-11-20T16:45:43;99655.29;;;-3.12;81.40
75549;BME280;64133;56.002;37.208;2022-11-20T16:50:49;99656.64;;;-3.15;81.20
75549;BME280;64133;56.002;37.208;2022-11-20T16:55:53;99656.94;;;-3.09;81.42
75549;BME280;64133;56.002;37.208;2022-11-20T17:00:59;99660.45;;;-3.12;81.31
75549;BME280;64133;56.002;37.208;2022-11-20T17:06:11;99668.62;;;-3.12;81.40
75549;BME280;64133;56.002;37.208;2022-11-20T17:11:17;99687.20;;;-3.19;81.32
75549;BME280;64133;56.002;37.208;2022-11-20T17:16:21;99695.78;;;-3.18;81.51
75549;BME280;64133;56.002;37.208;2022-11-20T17:21:26;99694.09;;;-3.19;81.54
75549;BME280;64133;56.002;37.208;2022-11-20T17:26:31;99685.12;;;-3.22;81.73
75549;BME280;64133;56.002;37.208;2022-11-20T17:31:36;99677.40;;;-3.22;81.22
75549;BME280;64133;56.002;37.208;2022-11-20T17:36:41;99674.96;;;-3.29;81.79
75549;BME280;64133;56.002;37.208;2022-11-20T17:41:46;99703.45;;;-3.15;81.87
75549;BME280;64133;56.002;37.208;2022-11-20T17:46:52;99694.68;;;-3.07;81.31
75549;BME280;64133;56.002;37.208;2022-11-20T17:51:57;99697.86;;;-3.15;81.17
75549;BME280;64133;56.002;37.208;2022-11-20T17:57:02;99696.97;;;-3.14;81.26
75549;BME280;64133;56.002;37.208;2022-11-20T18:02:24;99696.97;;;-3.14;81.20
75549;BME280;64133;56.002;37.208;2022-11-20T18:07:29;99689.33;;;-3.17;81.33
75549;BME280;64133;56.002;37.208;2022-11-20T18:12:34;99682.74;;;-3.11;81.61
75549;BME280;64133;56.002;37.208;2022-11-20T18:17:39;99679.27;;;-3.08;81.24
75549;BME280;64133;56.002;37.208;2022-11-20T18:22:44;99667.04;;;-3.19;81.11
75549;BME280;64133;56.002;37.208;2022-11-20T18:27:50;99670.91;;;-3.19;81.02
75549;BME280;64133;56.002;37.208;2022-11-20T18:32:55;99668.37;;;-3.42;81.52
75549;BME280;64133;56.002;37.208;2022-11-20T18:38:00;99673.80;;;-3.56;81.77
75549;BME280;64133;56.002;37.208;2022-11-20T18:43:05;99665.23;;;-3.56;81.87
75549;BME280;64133;56.002;37.208;2022-11-20T18:48:38;99679.26;;;-3.50;81.58
75549;BME280;64133;56.002;37.208;2022-11-20T18:53:43;99701.80;;;-3.39;81.82
75549;BME280;64133;56.002;37.208;2022-11-20T18:58:48;99705.98;;;-3.57;81.56
75549;BME280;64133;56.002;37.208;2022-11-20T19:03:53;99705.58;;;-3.57;81.32
75549;BME280;64133;56.002;37.208;2022-11-20T19:08:58;99699.55;;;-3.56;81.61
75549;BME280;64133;56.002;37.208;2022-11-20T19:14:03;99699.98;;;-3.56;81.31
75549;BME280;64133;56.002;37.208;2022-11-20T19:19:08;99686.27;;;-3.57;81.20
75549;BME280;64133;56.002;37.208;2022-11-20T19:24:13;99675.70;;;-3.44;81.46
75549;BME280;64133;56.002;37.208;2022-11-20T19:29:18;99673.08;;;-3.41;81.63
75549;BME280;64133;56.002;37.208;2022-11-20T19:34:23;99674.29;;;-3.59;82.07
75549;BME280;64133;56.002;37.208;2022-11-20T19:39:29;99680.73;;;-3.59;81.82
75549;BME280;64133;56.002;37.208;2022-11-20T19:44:34;99681.97;;;-3.56;81.94
75549;BME280;64133;56.002;37.208;2022-11-20T19:49:39;99677.62;;;-3.54;82.01
75549;BME280;64133;56.002;37.208;2022-11-20T19:54:44;99672.97;;;-3.58;81.47
75549;BME280;64133;56.002;37.208;2022-11-20T19:59:49;99673.09;;;-3.64;81.87
75549;BME280;64133;56.002;37.208;2022-11-20T20:04:54;99670.91;;;-3.61;81.77
75549;BME280;64133;56.002;37.208;2022-11-20T20:09:59;99663.03;;;-3.76;81.95
75549;BME280;64133;56.002;37.208;2022-11-20T20:15:05;99664.98;;;-3.66;81.89
75549;BME280;64133;56.002;37.208;2022-11-20T20:20:11;99655.56;;;-3.67;81.43
75549;BME280;64133;56.002;37.208;2022-11-20T20:25:17;99654.46;;;-3.76;81.49
75549;BME280;64133;56.002;37.208;2022-11-20T20:30:21;99679.17;;;-3.68;81.23
75549;BME280;64133;56.002;37.208;2022-11-20T20:35:27;99688.36;;;-3.55;81.49
75549;BME280;64133;56.002;37.208;2022-11-20T20:40:31;99685.52;;;-3.63;80.83
75549;BME280;64133;56.002;37.208;2022-11-20T20:45:37;99676.16;;;-3.67;80.66
75549;BME280;64133;56.002;37.208;2022-11-20T20:50:42;99676.69;;;-3.72;80.65
75549;BME280;64133;56.002;37.208;2022-11-20T20:55:55;99686.27;;;-3.57;80.54
75549;BME280;64133;56.002;37.208;2022-11-20T21:01:02;99682.81;;;-3.57;80.63
75549;BME280;64133;56.002;37.208;2022-11-20T21:06:07;99677.80;;;-3.63;80.12
75549;BME280;64133;56.002;37.208;2022-11-20T21:11:13;99684.81;;;-3.71;80.63
75549;BME280;64133;56.002;37.208;2022-11-20T21:16:18;99690.27;;;-3.64;80.33
75549;BME280;64133;56.002;37.208;2022-11-20T21:21:22;99701.38;;;-3.62;80.17
75549;BME280;64133;56.002;37.208;2022-11-20T21:26:45;99689.38;;;-3.63;80.47
75549;BME280;64133;56.002;37.208;2022-11-20T21:31:50;99689.12;;;-3.72;80.33
75549;BME280;64133;56.002;37.208;2022-11-20T21:36:55;99699.77;;;-3.68;80.06
75549;BME280;64133;56.002;37.208;2022-11-20T21:42:00;99703.95;;;-3.62;79.74
75549;BME280;64133;56.002;37.208;2022-11-20T21:47:05;99687.21;;;-3.62;79.70
75549;BME280;64133;56.002;37.208;2022-11-20T21:52:10;99695.95;;;-3.69;79.89
75549;BME280;64133;56.002;37.208;2022-11-20T21:57:15;99684.59;;;-3.59;80.13
75549;BME280;64133;56.002;37.208;2022-11-20T22:02:20;99680.95;;;-3.71;80.34
75549;BME280;64133;56.002;37.208;2022-11-20T22:07:25;99695.91;;;-3.68;80.75
75549;BME280;64133;56.002;37.208;2022-11-20T22:12:30;99694.71;;;-3.72;80.98
75549;BME280;64133;56.002;37.208;2022-11-20T22:17:35;99684.86;;;-3.73;81.01
75549;BME280;64133;56.002;37.208;2022-11-20T22:22:57;99675.80;;;-3.70;81.18
75549;BME280;64133;56.002;37.208;2022-11-20T22:28:02;99684.72;;;-3.65;81.49
75549;BME280;64133;56.002;37.208;2022-11-20T22:33:07;99678.78;;;-3.69;81.42
75549;BME280;64133;56.002;37.208;2022-11-20T22:38:12;99681.58;;;-3.81;81.93
75549;BME280;64133;56.002;37.208;2022-11-20T22:43:18;99683.70;;;-3.81;82.46
75549;BME280;64133;56.002;37.208;2022-11-20T22:48:23;99689.91;;;-3.68;82.37
75549;BME280;64133;56.002;37.208;2022-11-20T22:53:28;99684.55;;;-3.80;82.40
75549;BME280;64133;56.002;37.208;2022-11-20T22:58:33;99689.97;;;-3.71;82.36
75549;BME280;64133;56.002;37.208;2022-11-20T23:03:38;99669.38;;;-3.71;82.51
75549;BME280;64133;56.002;37.208;2022-11-20T23:08:43;99666.71;;;-3.89;82.92
75549;BME280;64133;56.002;37.208;2022-11-20T23:19:02;99655.09;;;-3.88;83.19
75549;BME280;64133;56.002;37.208;2022-11-20T23:24:08;99647.46;;;-3.92;83.17
75549;BME280;64133;56.002;37.208;2022-11-20T23:29:13;99631.27;;;-3.97;83.76
75549;BME280;64133;56.002;37.208;2022-11-20T23:34:18;99637.33;;;-4.00;83.74
75549;BME280;64133;56.002;37.208;2022-11-20T23:39:23;99638.53;;;-3.95;83.97
75549;BME280;64133;56.002;37.208;2022-11-20T23:44:28;99641.06;;;-3.94;83.74
75549;BME280;64133;56.002;37.208;2022-11-20T23:49:33;99643.59;;;-3.91;83.95
75549;BME280;64133;56.002;37.208;2022-11-20T23:54:38;99626.61;;;-4.01;83.83
75549;BME280;64133;56.002;37.208;2022-11-20T23:59:43;99634.05;;;-3.86;84.50
